sensor_id;sensor_type;location;lat;lon;timestamp;temperature;humidity
70839;DHT22;58464;52.298;4.852;2022-10-23T00:01:36;13.65;88.46
70839;DHT22;58464;52.298;4.852;2022-10-23T00:04:16;13.65;88.86
70839;DHT22;58464;52.298;4.852;2022-10-23T00:06:42;13.67;88.79
70839;DHT22;58464;52.298;4.852;2022-10-23T00:09:10;13.62;88.74
70839;DHT22;58464;52.298;4.852;2022-10-23T00:11:37;13.61;88.88
70839;DHT22;58464;52.298;4.852;2022-10-23T00:14:05;13.68;88.79
70839;DHT22;58464;52.298;4.852;2022-10-23T00:16:32;13.74;88.58
70839;DHT22;58464;52.298;4.852;2022-10-23T00:18:59;13.74;88.56
70839;DHT22;58464;52.298;4.852;2022-10-23T00:21:24;13.72;88.60
70839;DHT22;58464;52.298;4.852;2022-10-23T00:23:50;13.81;88.47
70839;DHT22;58464;52.298;4.852;2022-10-23T00:26:16;13.83;88.37
70839;DHT22;58464;52.298;4.852;2022-10-23T00:28:43;13.91;88.27
70839;DHT22;58464;52.298;4.852;2022-10-23T00:31:09;13.88;88.10
70839;DHT22;58464;52.298;4.852;2022-10-23T00:33:35;13.88;88.11
70839;DHT22;58464;52.298;4.852;2022-10-23T00:36:07;13.82;88.15
70839;DHT22;58464;52.298;4.852;2022-10-23T00:38:33;13.97;88.56
70839;DHT22;58464;52.298;4.852;2022-10-23T00:40:59;13.86;88.06
70839;DHT22;58464;52.298;4.852;2022-10-23T00:43:26;13.94;88.19
70839;DHT22;58464;52.298;4.852;2022-10-23T00:45:53;13.99;87.99
70839;DHT22;58464;52.298;4.852;2022-10-23T00:48:19;14.05;87.86
70839;DHT22;58464;52.298;4.852;2022-10-23T00:50:46;14.10;87.68
70839;DHT22;58464;52.298;4.852;2022-10-23T00:53:13;14.09;87.38
70839;DHT22;58464;52.298;4.852;2022-10-23T00:55:40;14.12;87.58
70839;DHT22;58464;52.298;4.852;2022-10-23T00:58:12;14.05;87.60
70839;DHT22;58464;52.298;4.852;2022-10-23T01:00:51;14.05;87.79
70839;DHT22;58464;52.298;4.852;2022-10-23T01:03:19;14.01;87.95
70839;DHT22;58464;52.298;4.852;2022-10-23T01:06:08;14.04;88.05
70839;DHT22;58464;52.298;4.852;2022-10-23T01:08:56;14.06;87.73
70839;DHT22;58464;52.298;4.852;2022-10-23T01:11:38;13.99;87.88
70839;DHT22;58464;52.298;4.852;2022-10-23T01:17:02;13.88;88.29
70839;DHT22;58464;52.298;4.852;2022-10-23T01:19:47;13.81;88.53
70839;DHT22;58464;52.298;4.852;2022-10-23T01:24:58;13.72;89.14
70839;DHT22;58464;52.298;4.852;2022-10-23T01:27:32;13.71;89.10
70839;DHT22;58464;52.298;4.852;2022-10-23T01:30:05;13.74;89.13
70839;DHT22;58464;52.298;4.852;2022-10-23T01:32:38;13.74;89.12
70839;DHT22;58464;52.298;4.852;2022-10-23T01:35:12;13.83;89.02
70839;DHT22;58464;52.298;4.852;2022-10-23T01:37:41;13.79;88.95
70839;DHT22;58464;52.298;4.852;2022-10-23T01:40:12;13.79;88.87
70839;DHT22;58464;52.298;4.852;2022-10-23T01:42:45;13.85;88.56
70839;DHT22;58464;52.298;4.852;2022-10-23T01:45:49;13.86;88.64
70839;DHT22;58464;52.298;4.852;2022-10-23T01:48:11;13.86;88.37
70839;DHT22;58464;52.298;4.852;2022-10-23T01:50:39;13.81;88.64
70839;DHT22;58464;52.298;4.852;2022-10-23T01:53:05;13.82;88.46
70839;DHT22;58464;52.298;4.852;2022-10-23T01:55:32;13.83;88.69
70839;DHT22;58464;52.298;4.852;2022-10-23T01:57:59;13.85;88.79
70839;DHT22;58464;52.298;4.852;2022-10-23T02:00:25;13.89;88.81
70839;DHT22;58464;52.298;4.852;2022-10-23T02:02:53;13.85;88.57
70839;DHT22;58464;52.298;4.852;2022-10-23T02:05:23;13.85;88.56
70839;DHT22;58464;52.298;4.852;2022-10-23T02:07:50;13.85;88.58
70839;DHT22;58464;52.298;4.852;2022-10-23T02:10:16;13.85;88.55
70839;DHT22;58464;52.298;4.852;2022-10-23T02:18:35;13.89;88.33
70839;DHT22;58464;52.298;4.852;2022-10-23T02:21:08;13.88;88.21
70839;DHT22;58464;52.298;4.852;2022-10-23T02:23:38;13.79;88.36
70839;DHT22;58464;52.298;4.852;2022-10-23T02:28:42;13.81;88.57
70839;DHT22;58464;52.298;4.852;2022-10-23T02:31:12;13.81;88.51
70839;DHT22;58464;52.298;4.852;2022-10-23T02:33:39;13.85;88.58
70839;DHT22;58464;52.298;4.852;2022-10-23T02:36:05;13.83;88.26
70839;DHT22;58464;52.298;4.852;2022-10-23T02:38:34;13.75;88.41
70839;DHT22;58464;52.298;4.852;2022-10-23T03:00:58;13.60;89.13
70839;DHT22;58464;52.298;4.852;2022-10-23T03:03:29;13.58;88.96
70839;DHT22;58464;52.298;4.852;2022-10-23T03:05:56;13.58;89.26
70839;DHT22;58464;52.298;4.852;2022-10-23T03:08:22;13.58;89.32
70839;DHT22;58464;52.298;4.852;2022-10-23T03:10:49;13.57;89.15
70839;DHT22;58464;52.298;4.852;2022-10-23T03:13:15;13.58;89.13
70839;DHT22;58464;52.298;4.852;2022-10-23T03:15:41;13.58;88.88
70839;DHT22;58464;52.298;4.852;2022-10-23T03:18:07;13.55;88.98
70839;DHT22;58464;52.298;4.852;2022-10-23T03:20:33;13.60;89.14
70839;DHT22;58464;52.298;4.852;2022-10-23T03:22:58;13.60;89.06
70839;DHT22;58464;52.298;4.852;2022-10-23T03:25:24;13.57;89.04
70839;DHT22;58464;52.298;4.852;2022-10-23T03:27:49;13.53;89.28
70839;DHT22;58464;52.298;4.852;2022-10-23T03:30:14;13.51;89.09
70839;DHT22;58464;52.298;4.852;2022-10-23T03:32:40;13.53;89.17
70839;DHT22;58464;52.298;4.852;2022-10-23T03:35:06;13.50;89.03
70839;DHT22;58464;52.298;4.852;2022-10-23T03:37:32;13.47;89.32
70839;DHT22;58464;52.298;4.852;2022-10-23T03:39:59;13.51;89.52
70839;DHT22;58464;52.298;4.852;2022-10-23T03:42:25;13.54;89.52
70839;DHT22;58464;52.298;4.852;2022-10-23T03:44:50;13.50;89.25
70839;DHT22;58464;52.298;4.852;2022-10-23T03:47:16;13.51;89.25
70839;DHT22;58464;52.298;4.852;2022-10-23T03:49:42;13.47;89.24
70839;DHT22;58464;52.298;4.852;2022-10-23T03:52:07;13.41;89.45
70839;DHT22;58464;52.298;4.852;2022-10-23T03:54:33;13.46;89.46
70839;DHT22;58464;52.298;4.852;2022-10-23T03:57:00;13.47;89.71
70839;DHT22;58464;52.298;4.852;2022-10-23T03:59:26;13.46;89.57
70839;DHT22;58464;52.298;4.852;2022-10-23T04:01:52;13.44;89.52
70839;DHT22;58464;52.298;4.852;2022-10-23T04:04:18;13.40;89.52
70839;DHT22;58464;52.298;4.852;2022-10-23T04:06:43;13.40;89.52
70839;DHT22;58464;52.298;4.852;2022-10-23T04:09:09;13.31;89.57
70839;DHT22;58464;52.298;4.852;2022-10-23T04:11:34;13.31;89.91
70839;DHT22;58464;52.298;4.852;2022-10-23T04:14:00;13.24;89.85
70839;DHT22;58464;52.298;4.852;2022-10-23T04:16:25;13.28;89.86
70839;DHT22;58464;52.298;4.852;2022-10-23T04:18:51;13.27;90.53
70839;DHT22;58464;52.298;4.852;2022-10-23T04:21:17;13.27;90.03
70839;DHT22;58464;52.298;4.852;2022-10-23T04:23:42;13.30;90.06
70839;DHT22;58464;52.298;4.852;2022-10-23T04:26:08;13.28;89.96
70839;DHT22;58464;52.298;4.852;2022-10-23T04:28:33;13.23;89.93
70839;DHT22;58464;52.298;4.852;2022-10-23T04:30:58;13.20;90.01
70839;DHT22;58464;52.298;4.852;2022-10-23T04:33:24;13.24;90.61
70839;DHT22;58464;52.298;4.852;2022-10-23T04:35:50;13.24;90.00
70839;DHT22;58464;52.298;4.852;2022-10-23T04:38:15;13.19;90.13
70839;DHT22;58464;52.298;4.852;2022-10-23T04:40:40;13.27;90.58
70839;DHT22;58464;52.298;4.852;2022-10-23T04:43:06;13.24;90.25
70839;DHT22;58464;52.298;4.852;2022-10-23T04:45:31;13.21;89.90
70839;DHT22;58464;52.298;4.852;2022-10-23T04:47:57;13.20;90.05
70839;DHT22;58464;52.298;4.852;2022-10-23T04:50:22;13.13;90.31
70839;DHT22;58464;52.298;4.852;2022-10-23T04:52:48;13.14;90.24
70839;DHT22;58464;52.298;4.852;2022-10-23T04:55:13;13.13;90.11
70839;DHT22;58464;52.298;4.852;2022-10-23T04:57:39;13.14;90.07
70839;DHT22;58464;52.298;4.852;2022-10-23T05:00:07;13.14;90.07
70839;DHT22;58464;52.298;4.852;2022-10-23T05:02:33;13.19;90.24
70839;DHT22;58464;52.298;4.852;2022-10-23T05:04:59;13.21;90.36
70839;DHT22;58464;52.298;4.852;2022-10-23T05:07:24;13.20;90.17
70839;DHT22;58464;52.298;4.852;2022-10-23T05:09:50;13.17;89.85
70839;DHT22;58464;52.298;4.852;2022-10-23T05:12:15;13.19;90.01
70839;DHT22;58464;52.298;4.852;2022-10-23T05:14:41;13.19;90.03
70839;DHT22;58464;52.298;4.852;2022-10-23T05:17:11;13.16;90.07
70839;DHT22;58464;52.298;4.852;2022-10-23T05:19:46;13.27;90.20
70839;DHT22;58464;52.298;4.852;2022-10-23T05:22:14;13.28;89.64
70839;DHT22;58464;52.298;4.852;2022-10-23T05:24:39;13.27;89.75
70839;DHT22;58464;52.298;4.852;2022-10-23T05:27:05;13.24;89.73
70839;DHT22;58464;52.298;4.852;2022-10-23T05:29:30;13.27;89.82
70839;DHT22;58464;52.298;4.852;2022-10-23T05:31:59;13.33;89.85
70839;DHT22;58464;52.298;4.852;2022-10-23T05:34:28;13.34;89.64
70839;DHT22;58464;52.298;4.852;2022-10-23T05:36:54;13.47;89.55
70839;DHT22;58464;52.298;4.852;2022-10-23T05:39:20;13.54;89.03
70839;DHT22;58464;52.298;4.852;2022-10-23T05:41:45;13.54;88.88
70839;DHT22;58464;52.298;4.852;2022-10-23T05:44:11;13.58;88.79
70839;DHT22;58464;52.298;4.852;2022-10-23T05:46:42;13.54;88.86
70839;DHT22;58464;52.298;4.852;2022-10-23T05:49:08;13.61;88.56
70839;DHT22;58464;52.298;4.852;2022-10-23T05:51:38;13.74;88.29
70839;DHT22;58464;52.298;4.852;2022-10-23T05:54:05;13.86;88.37
70839;DHT22;58464;52.298;4.852;2022-10-23T05:56:34;13.92;87.76
70839;DHT22;58464;52.298;4.852;2022-10-23T05:58:59;13.97;87.35
70839;DHT22;58464;52.298;4.852;2022-10-23T06:01:25;13.97;87.19
70839;DHT22;58464;52.298;4.852;2022-10-23T06:03:50;13.97;87.32
70839;DHT22;58464;52.298;4.852;2022-10-23T06:06:15;13.98;87.30
70839;DHT22;58464;52.298;4.852;2022-10-23T06:08:41;14.02;87.34
70839;DHT22;58464;52.298;4.852;2022-10-23T06:11:12;14.09;87.40
70839;DHT22;58464;52.298;4.852;2022-10-23T06:13:37;14.19;86.96
70839;DHT22;58464;52.298;4.852;2022-10-23T06:16:10;14.19;86.88
70839;DHT22;58464;52.298;4.852;2022-10-23T06:18:36;14.26;86.73
70839;DHT22;58464;52.298;4.852;2022-10-23T06:21:02;14.36;86.72
70839;DHT22;58464;52.298;4.852;2022-10-23T06:23:29;14.29;86.40
70839;DHT22;58464;52.298;4.852;2022-10-23T06:25:55;14.34;86.52
70839;DHT22;58464;52.298;4.852;2022-10-23T06:28:21;14.34;86.54
70839;DHT22;58464;52.298;4.852;2022-10-23T06:30:46;14.25;86.44
70839;DHT22;58464;52.298;4.852;2022-10-23T06:33:12;14.32;86.69
70839;DHT22;58464;52.298;4.852;2022-10-23T06:35:40;14.28;86.54
70839;DHT22;58464;52.298;4.852;2022-10-23T06:38:05;14.34;86.59
70839;DHT22;58464;52.298;4.852;2022-10-23T06:40:30;14.43;86.49
70839;DHT22;58464;52.298;4.852;2022-10-23T06:42:57;14.46;86.26
70839;DHT22;58464;52.298;4.852;2022-10-23T06:45:23;14.32;86.39
70839;DHT22;58464;52.298;4.852;2022-10-23T06:47:49;14.33;86.63
70839;DHT22;58464;52.298;4.852;2022-10-23T06:50:15;14.39;86.73
70839;DHT22;58464;52.298;4.852;2022-10-23T06:52:43;14.37;86.47
70839;DHT22;58464;52.298;4.852;2022-10-23T06:55:08;14.40;86.38
70839;DHT22;58464;52.298;4.852;2022-10-23T06:57:35;14.47;86.68
70839;DHT22;58464;52.298;4.852;2022-10-23T07:00:00;14.46;86.25
70839;DHT22;58464;52.298;4.852;2022-10-23T07:02:26;14.39;86.41
70839;DHT22;58464;52.298;4.852;2022-10-23T07:04:51;14.46;86.36
70839;DHT22;58464;52.298;4.852;2022-10-23T07:07:16;14.46;86.43
70839;DHT22;58464;52.298;4.852;2022-10-23T07:09:42;14.50;86.52
70839;DHT22;58464;52.298;4.852;2022-10-23T07:12:08;14.57;86.36
70839;DHT22;58464;52.298;4.852;2022-10-23T07:14:33;14.57;85.93
70839;DHT22;58464;52.298;4.852;2022-10-23T07:16:59;14.57;86.05
70839;DHT22;58464;52.298;4.852;2022-10-23T07:19:24;14.67;86.02
70839;DHT22;58464;52.298;4.852;2022-10-23T07:21:50;14.80;85.69
70839;DHT22;58464;52.298;4.852;2022-10-23T07:24:15;14.84;85.53
70839;DHT22;58464;52.298;4.852;2022-10-23T07:26:41;14.77;85.49
70839;DHT22;58464;52.298;4.852;2022-10-23T07:29:09;14.84;85.53
70839;DHT22;58464;52.298;4.852;2022-10-23T07:31:34;14.91;85.55
70839;DHT22;58464;52.298;4.852;2022-10-23T07:33:59;14.90;85.20
70839;DHT22;58464;52.298;4.852;2022-10-23T07:36:25;14.99;85.39
70839;DHT22;58464;52.298;4.852;2022-10-23T07:38:50;14.99;85.02
70839;DHT22;58464;52.298;4.852;2022-10-23T07:41:16;15.08;85.18
70839;DHT22;58464;52.298;4.852;2022-10-23T07:43:42;15.11;85.00
70839;DHT22;58464;52.298;4.852;2022-10-23T07:46:07;15.15;84.70
70839;DHT22;58464;52.298;4.852;2022-10-23T07:48:34;15.24;84.32
70839;DHT22;58464;52.298;4.852;2022-10-23T07:51:02;15.25;84.40
70839;DHT22;58464;52.298;4.852;2022-10-23T07:53:32;15.29;84.29
70839;DHT22;58464;52.298;4.852;2022-10-23T07:56:00;15.31;84.32
70839;DHT22;58464;52.298;4.852;2022-10-23T07:58:27;15.40;83.99
70839;DHT22;58464;52.298;4.852;2022-10-23T08:00:59;15.48;84.18
70839;DHT22;58464;52.298;4.852;2022-10-23T08:03:28;15.40;83.84
70839;DHT22;58464;52.298;4.852;2022-10-23T08:05:55;15.52;83.65
70839;DHT22;58464;52.298;4.852;2022-10-23T08:08:21;15.49;83.45
70839;DHT22;58464;52.298;4.852;2022-10-23T08:10:49;15.52;83.49
70839;DHT22;58464;52.298;4.852;2022-10-23T08:13:15;15.53;83.72
70839;DHT22;58464;52.298;4.852;2022-10-23T08:15:42;15.60;83.50
70839;DHT22;58464;52.298;4.852;2022-10-23T08:18:08;15.67;83.13
70839;DHT22;58464;52.298;4.852;2022-10-23T08:20:41;15.60;83.18
70839;DHT22;58464;52.298;4.852;2022-10-23T08:23:18;15.67;83.18
70839;DHT22;58464;52.298;4.852;2022-10-23T08:25:44;15.69;82.95
70839;DHT22;58464;52.298;4.852;2022-10-23T08:28:13;15.82;82.85
70839;DHT22;58464;52.298;4.852;2022-10-23T08:30:40;15.80;82.52
70839;DHT22;58464;52.298;4.852;2022-10-23T08:33:06;15.87;82.56
70839;DHT22;58464;52.298;4.852;2022-10-23T08:35:44;15.83;82.29
70839;DHT22;58464;52.298;4.852;2022-10-23T08:38:09;15.93;82.35
70839;DHT22;58464;52.298;4.852;2022-10-23T08:40:42;15.97;82.22
70839;DHT22;58464;52.298;4.852;2022-10-23T08:45:53;15.91;82.06
70839;DHT22;58464;52.298;4.852;2022-10-23T08:48:28;15.98;81.88
70839;DHT22;58464;52.298;4.852;2022-10-23T08:51:13;16.14;82.00
70839;DHT22;58464;52.298;4.852;2022-10-23T08:53:49;16.14;81.68
70839;DHT22;58464;52.298;4.852;2022-10-23T09:01:59;16.21;81.53
70839;DHT22;58464;52.298;4.852;2022-10-23T09:04:26;16.20;81.34
70839;DHT22;58464;52.298;4.852;2022-10-23T09:12:28;16.20;81.10
70839;DHT22;58464;52.298;4.852;2022-10-23T09:15:51;16.22;81.35
70839;DHT22;58464;52.298;4.852;2022-10-23T09:18:14;16.27;81.37
70839;DHT22;58464;52.298;4.852;2022-10-23T09:20:41;16.27;81.19
70839;DHT22;58464;52.298;4.852;2022-10-23T09:23:21;16.35;80.79
70839;DHT22;58464;52.298;4.852;2022-10-23T09:25:49;16.29;81.01
70839;DHT22;58464;52.298;4.852;2022-10-23T09:28:23;16.42;81.08
70839;DHT22;58464;52.298;4.852;2022-10-23T09:30:50;16.52;80.35
70839;DHT22;58464;52.298;4.852;2022-10-23T09:33:26;16.55;80.74
70839;DHT22;58464;52.298;4.852;2022-10-23T09:39:19;16.64;80.46
70839;DHT22;58464;52.298;4.852;2022-10-23T09:41:35;16.65;80.21
70839;DHT22;58464;52.298;4.852;2022-10-23T09:44:15;16.72;79.82
70839;DHT22;58464;52.298;4.852;2022-10-23T09:46:44;16.75;79.48
70839;DHT22;58464;52.298;4.852;2022-10-23T09:49:29;16.87;79.14
70839;DHT22;58464;52.298;4.852;2022-10-23T09:54:33;16.90;79.07
70839;DHT22;58464;52.298;4.852;2022-10-23T09:57:18;16.95;79.21
70839;DHT22;58464;52.298;4.852;2022-10-23T09:59:52;17.03;78.95
70839;DHT22;58464;52.298;4.852;2022-10-23T10:02:35;17.05;78.82
70839;DHT22;58464;52.298;4.852;2022-10-23T10:05:31;17.09;78.72
70839;DHT22;58464;52.298;4.852;2022-10-23T10:11:09;17.19;78.40
70839;DHT22;58464;52.298;4.852;2022-10-23T10:16:12;17.13;78.40
70839;DHT22;58464;52.298;4.852;2022-10-23T10:18:49;16.96;78.77
70839;DHT22;58464;52.298;4.852;2022-10-23T10:21:28;16.97;79.11
70839;DHT22;58464;52.298;4.852;2022-10-23T10:23:58;16.95;79.53
70839;DHT22;58464;52.298;4.852;2022-10-23T10:26:40;16.89;79.37
70839;DHT22;58464;52.298;4.852;2022-10-23T10:37:11;16.92;79.36
70839;DHT22;58464;52.298;4.852;2022-10-23T10:39:49;16.97;79.26
70839;DHT22;58464;52.298;4.852;2022-10-23T10:47:57;17.09;78.67
70839;DHT22;58464;52.298;4.852;2022-10-23T10:50:35;17.30;78.41
70839;DHT22;58464;52.298;4.852;2022-10-23T10:53:33;17.26;77.89
70839;DHT22;58464;52.298;4.852;2022-10-23T10:56:08;17.38;77.41
70839;DHT22;58464;52.298;4.852;2022-10-23T10:58:41;17.46;77.26
70839;DHT22;58464;52.298;4.852;2022-10-23T11:06:51;17.57;77.30
70839;DHT22;58464;52.298;4.852;2022-10-23T11:09:24;17.64;76.65
70839;DHT22;58464;52.298;4.852;2022-10-23T11:11:51;17.70;76.46
70839;DHT22;58464;52.298;4.852;2022-10-23T11:14:19;17.75;76.31
70839;DHT22;58464;52.298;4.852;2022-10-23T11:16:52;17.73;76.22
70839;DHT22;58464;52.298;4.852;2022-10-23T11:30:22;18.22;75.10
70839;DHT22;58464;52.298;4.852;2022-10-23T11:33:29;18.21;74.69
70839;DHT22;58464;52.298;4.852;2022-10-23T11:38:39;18.45;74.72
70839;DHT22;58464;52.298;4.852;2022-10-23T11:41:25;18.52;74.36
70839;DHT22;58464;52.298;4.852;2022-10-23T11:44:00;18.57;73.81
70839;DHT22;58464;52.298;4.852;2022-10-23T11:46:35;18.64;73.39
70839;DHT22;58464;52.298;4.852;2022-10-23T11:49:02;18.67;73.34
70839;DHT22;58464;52.298;4.852;2022-10-23T11:51:37;18.70;73.72
70839;DHT22;58464;52.298;4.852;2022-10-23T11:54:21;18.73;73.14
70839;DHT22;58464;52.298;4.852;2022-10-23T11:59:34;18.81;73.07
70839;DHT22;58464;52.298;4.852;2022-10-23T12:02:02;18.68;73.15
70839;DHT22;58464;52.298;4.852;2022-10-23T12:04:38;18.75;73.13
70839;DHT22;58464;52.298;4.852;2022-10-23T12:07:28;18.66;73.21
70839;DHT22;58464;52.298;4.852;2022-10-23T12:09:57;18.77;72.76
70839;DHT22;58464;52.298;4.852;2022-10-23T12:12:34;18.74;73.08
70839;DHT22;58464;52.298;4.852;2022-10-23T12:15:19;18.81;72.70
70839;DHT22;58464;52.298;4.852;2022-10-23T12:17:46;18.90;72.52
70839;DHT22;58464;52.298;4.852;2022-10-23T12:20:56;18.85;72.38
70839;DHT22;58464;52.298;4.852;2022-10-23T12:29:03;18.78;73.03
70839;DHT22;58464;52.298;4.852;2022-10-23T12:34:37;18.73;72.90
70839;DHT22;58464;52.298;4.852;2022-10-23T12:39:55;18.71;73.24
70839;DHT22;58464;52.298;4.852;2022-10-23T12:42:26;18.78;72.97
70839;DHT22;58464;52.298;4.852;2022-10-23T12:45:00;18.81;73.11
70839;DHT22;58464;52.298;4.852;2022-10-23T12:47:26;18.93;72.93
70839;DHT22;58464;52.298;4.852;2022-10-23T12:49:52;18.93;72.98
70839;DHT22;58464;52.298;4.852;2022-10-23T12:52:20;19.03;72.91
70839;DHT22;58464;52.298;4.852;2022-10-23T12:54:46;19.03;72.52
70839;DHT22;58464;52.298;4.852;2022-10-23T12:57:24;19.10;72.68
70839;DHT22;58464;52.298;4.852;2022-10-23T12:59:54;19.16;72.24
70839;DHT22;58464;52.298;4.852;2022-10-23T13:02:25;19.32;71.67
70839;DHT22;58464;52.298;4.852;2022-10-23T13:04:52;19.44;71.21
70839;DHT22;58464;52.298;4.852;2022-10-23T13:07:22;19.53;71.05
70839;DHT22;58464;52.298;4.852;2022-10-23T13:09:49;19.49;70.93
70839;DHT22;58464;52.298;4.852;2022-10-23T13:12:32;19.52;70.45
70839;DHT22;58464;52.298;4.852;2022-10-23T13:15:14;19.76;69.95
70839;DHT22;58464;52.298;4.852;2022-10-23T13:17:46;19.93;69.76
70839;DHT22;58464;52.298;4.852;2022-10-23T13:20:25;20.01;69.45
70839;DHT22;58464;52.298;4.852;2022-10-23T13:23:00;20.01;69.17
70839;DHT22;58464;52.298;4.852;2022-10-23T13:25:31;20.14;69.19
70839;DHT22;58464;52.298;4.852;2022-10-23T13:30:42;20.18;68.82
70839;DHT22;58464;52.298;4.852;2022-10-23T13:33:22;20.20;68.85
70839;DHT22;58464;52.298;4.852;2022-10-23T13:35:57;20.21;68.80
70839;DHT22;58464;52.298;4.852;2022-10-23T13:38:34;20.25;68.78
70839;DHT22;58464;52.298;4.852;2022-10-23T13:41:02;20.14;69.22
70839;DHT22;58464;52.298;4.852;2022-10-23T13:43:29;20.16;69.10
70839;DHT22;58464;52.298;4.852;2022-10-23T13:45:56;20.14;69.30
70839;DHT22;58464;52.298;4.852;2022-10-23T13:48:22;20.18;69.00
70839;DHT22;58464;52.298;4.852;2022-10-23T13:50:48;20.25;68.94
70839;DHT22;58464;52.298;4.852;2022-10-23T13:53:14;20.28;69.40
70839;DHT22;58464;52.298;4.852;2022-10-23T13:55:42;20.25;69.08
70839;DHT22;58464;52.298;4.852;2022-10-23T13:58:09;20.38;68.79
70839;DHT22;58464;52.298;4.852;2022-10-23T14:00:36;20.38;68.46
70839;DHT22;58464;52.298;4.852;2022-10-23T14:03:03;20.35;68.76
70839;DHT22;58464;52.298;4.852;2022-10-23T14:05:30;20.34;68.88
70839;DHT22;58464;52.298;4.852;2022-10-23T14:07:56;20.20;69.38
70839;DHT22;58464;52.298;4.852;2022-10-23T14:10:21;20.27;69.17
70839;DHT22;58464;52.298;4.852;2022-10-23T14:12:48;20.25;69.50
70839;DHT22;58464;52.298;4.852;2022-10-23T14:15:18;20.24;69.43
70839;DHT22;58464;52.298;4.852;2022-10-23T14:17:43;20.13;69.39
70839;DHT22;58464;52.298;4.852;2022-10-23T14:20:10;20.12;69.97
70839;DHT22;58464;52.298;4.852;2022-10-23T14:22:35;20.07;69.92
70839;DHT22;58464;52.298;4.852;2022-10-23T14:25:01;20.12;70.11
70839;DHT22;58464;52.298;4.852;2022-10-23T14:27:26;20.07;69.83
70839;DHT22;58464;52.298;4.852;2022-10-23T14:29:53;19.97;70.28
70839;DHT22;58464;52.298;4.852;2022-10-23T14:32:19;19.89;70.64
70839;DHT22;58464;52.298;4.852;2022-10-23T14:34:49;19.80;71.08
70839;DHT22;58464;52.298;4.852;2022-10-23T14:37:15;19.76;71.42
70839;DHT22;58464;52.298;4.852;2022-10-23T14:39:44;19.65;71.45
70839;DHT22;58464;52.298;4.852;2022-10-23T14:42:11;19.74;71.35
70839;DHT22;58464;52.298;4.852;2022-10-23T14:44:37;19.82;71.08
70839;DHT22;58464;52.298;4.852;2022-10-23T14:47:04;19.97;70.84
70839;DHT22;58464;52.298;4.852;2022-10-23T14:49:30;19.86;71.20
70839;DHT22;58464;52.298;4.852;2022-10-23T14:51:57;19.84;71.24
70839;DHT22;58464;52.298;4.852;2022-10-23T14:54:22;19.77;71.43
70839;DHT22;58464;52.298;4.852;2022-10-23T14:56:49;19.86;71.49
70839;DHT22;58464;52.298;4.852;2022-10-23T14:59:15;19.79;71.77
70839;DHT22;58464;52.298;4.852;2022-10-23T15:01:42;19.61;72.13
70839;DHT22;58464;52.298;4.852;2022-10-23T15:04:07;19.62;72.39
70839;DHT22;58464;52.298;4.852;2022-10-23T15:06:34;19.58;72.88
70839;DHT22;58464;52.298;4.852;2022-10-23T15:09:00;19.42;72.97
70839;DHT22;58464;52.298;4.852;2022-10-23T15:11:26;19.44;72.97
70839;DHT22;58464;52.298;4.852;2022-10-23T15:13:52;19.46;73.30
70839;DHT22;58464;52.298;4.852;2022-10-23T15:16:19;19.36;73.57
70839;DHT22;58464;52.298;4.852;2022-10-23T15:18:48;19.24;73.78
70839;DHT22;58464;52.298;4.852;2022-10-23T15:21:14;19.16;74.30
70839;DHT22;58464;52.298;4.852;2022-10-23T15:23:42;19.16;74.32
70839;DHT22;58464;52.298;4.852;2022-10-23T15:26:12;19.03;74.70
70839;DHT22;58464;52.298;4.852;2022-10-23T15:28:38;19.05;74.59
70839;DHT22;58464;52.298;4.852;2022-10-23T15:31:05;19.03;74.85
70839;DHT22;58464;52.298;4.852;2022-10-23T15:33:30;19.07;74.87
70839;DHT22;58464;52.298;4.852;2022-10-23T15:35:57;19.03;75.03
70839;DHT22;58464;52.298;4.852;2022-10-23T15:38:22;18.95;75.21
70839;DHT22;58464;52.298;4.852;2022-10-23T15:40:49;18.97;75.16
70839;DHT22;58464;52.298;4.852;2022-10-23T15:43:15;18.94;75.56
70839;DHT22;58464;52.298;4.852;2022-10-23T15:45:41;18.91;75.39
70839;DHT22;58464;52.298;4.852;2022-10-23T15:48:08;18.83;75.84
70839;DHT22;58464;52.298;4.852;2022-10-23T15:50:34;18.83;75.80
70839;DHT22;58464;52.298;4.852;2022-10-23T15:53:00;18.75;75.99
70839;DHT22;58464;52.298;4.852;2022-10-23T15:55:26;18.80;75.79
70839;DHT22;58464;52.298;4.852;2022-10-23T15:57:51;18.91;75.82
70839;DHT22;58464;52.298;4.852;2022-10-23T16:00:17;19.12;74.65
70839;DHT22;58464;52.298;4.852;2022-10-23T16:02:43;19.07;75.05
70839;DHT22;58464;52.298;4.852;2022-10-23T16:05:08;18.85;75.58
70839;DHT22;58464;52.298;4.852;2022-10-23T16:07:34;18.81;75.71
70839;DHT22;58464;52.298;4.852;2022-10-23T16:09:59;18.80;76.24
70839;DHT22;58464;52.298;4.852;2022-10-23T16:12:25;18.66;76.53
70839;DHT22;58464;52.298;4.852;2022-10-23T16:14:50;18.63;76.63
70839;DHT22;58464;52.298;4.852;2022-10-23T16:17:16;18.61;76.34
70839;DHT22;58464;52.298;4.852;2022-10-23T16:19:43;18.66;76.42
70839;DHT22;58464;52.298;4.852;2022-10-23T16:22:09;18.64;76.45
70839;DHT22;58464;52.298;4.852;2022-10-23T16:24:34;18.53;76.75
70839;DHT22;58464;52.298;4.852;2022-10-23T16:27:00;18.57;76.76
70839;DHT22;58464;52.298;4.852;2022-10-23T16:29:26;18.52;77.10
70839;DHT22;58464;52.298;4.852;2022-10-23T16:31:54;18.49;77.16
70839;DHT22;58464;52.298;4.852;2022-10-23T16:34:20;18.46;77.04
70839;DHT22;58464;52.298;4.852;2022-10-23T16:36:46;18.49;76.97
70839;DHT22;58464;52.298;4.852;2022-10-23T16:39:13;18.50;77.09
70839;DHT22;58464;52.298;4.852;2022-10-23T16:41:39;18.50;77.14
70839;DHT22;58464;52.298;4.852;2022-10-23T16:44:05;18.46;76.84
70839;DHT22;58464;52.298;4.852;2022-10-23T16:46:31;18.50;77.17
70839;DHT22;58464;52.298;4.852;2022-10-23T16:49:00;18.49;76.95
70839;DHT22;58464;52.298;4.852;2022-10-23T16:51:27;18.46;77.11
70839;DHT22;58464;52.298;4.852;2022-10-23T16:53:56;18.39;77.61
70839;DHT22;58464;52.298;4.852;2022-10-23T16:56:23;18.42;77.23
70839;DHT22;58464;52.298;4.852;2022-10-23T16:58:49;18.39;77.66
70839;DHT22;58464;52.298;4.852;2022-10-23T17:01:18;18.28;77.85
70839;DHT22;58464;52.298;4.852;2022-10-23T17:03:46;18.29;77.95
70839;DHT22;58464;52.298;4.852;2022-10-23T17:06:20;18.29;77.98
70839;DHT22;58464;52.298;4.852;2022-10-23T17:08:47;18.25;77.95
70839;DHT22;58464;52.298;4.852;2022-10-23T17:11:15;18.30;78.19
70839;DHT22;58464;52.298;4.852;2022-10-23T17:13:49;18.30;77.95
70839;DHT22;58464;52.298;4.852;2022-10-23T17:16:42;18.32;77.79
70839;DHT22;58464;52.298;4.852;2022-10-23T17:19:10;18.30;77.91
70839;DHT22;58464;52.298;4.852;2022-10-23T17:21:53;18.29;78.08
70839;DHT22;58464;52.298;4.852;2022-10-23T17:24:39;18.35;77.57
70839;DHT22;58464;52.298;4.852;2022-10-23T17:27:05;18.32;77.94
70839;DHT22;58464;52.298;4.852;2022-10-23T17:29:31;18.25;78.26
70839;DHT22;58464;52.298;4.852;2022-10-23T17:31:56;18.21;78.42